Archival Weather

Chicago O'Hare International

Chicago, Illinois (KORD)

Report from: Wednesday, August 23, 2023 5:51 PM CDT
Current time: Monday, July 22, 2024 6:45 AM CDT

Current weather – Weather history – Daily summaries
Weather forecast

Temperature35.0°C (95.0°F)
Heat index46.2°C (115.2°F)
Dew point26.7°C (80.1°F)
Winds 13 kts (6.7 m/s, 15 mph) West-Southwest (240°)
Wind gusts 20 kts (10.3 m/s, 23 mph)
Visibility10 mi. (16.1 km)
Clouds Few clouds 3,500 ft. (1,067 m)
Scattered clouds 25,000 ft. (7,620 m)
Altimeter29.86 in.Hg (1011 mB)
Relative humidity62 %
Density altitude2,826 ft. (861 m)
Sea-level pressure101.1 kPa (1011 mB, 29.84 in.Hg)
Remarks Automated weather observing station with precipitation discriminator
Flight conditions Visual Meteorological Conditions
Raw dataKORD 232251Z 24013G20KT 10SM FEW035 SCT250 35/27 A2986 RMK AO2 SLP105 T03500267
An error has occurred. This application may no longer respond until reloaded. Reload 🗙